sensor_id;sensor_type;location;lat;lon;timestamp;P1;durP1;ratioP1;P2;durP2;ratioP2
18019;SDS011;9135;48.362;10.878;2023-01-09T00:01:49;2.83;;;2.63;;
18019;SDS011;9135;48.362;10.878;2023-01-09T00:04:16;8.73;;;3.67;;
18019;SDS011;9135;48.362;10.878;2023-01-09T00:06:42;5.27;;;4.03;;
18019;SDS011;9135;48.362;10.878;2023-01-09T00:09:10;3.57;;;2.57;;
18019;SDS011;9135;48.362;10.878;2023-01-09T00:11:36;4.07;;;3.10;;
18019;SDS011;9135;48.362;10.878;2023-01-09T00:14:03;2.80;;;2.60;;
18019;SDS011;9135;48.362;10.878;2023-01-09T00:16:29;2.77;;;2.67;;
18019;SDS011;9135;48.362;10.878;2023-01-09T00:18:55;7.57;;;3.13;;
18019;SDS011;9135;48.362;10.878;2023-01-09T00:21:21;4.50;;;2.67;;
18019;SDS011;9135;48.362;10.878;2023-01-09T00:23:48;5.20;;;4.73;;
18019;SDS011;9135;48.362;10.878;2023-01-09T00:26:15;4.27;;;3.97;;
18019;SDS011;9135;48.362;10.878;2023-01-09T00:28:41;3.90;;;3.47;;
18019;SDS011;9135;48.362;10.878;2023-01-09T00:31:08;4.20;;;3.80;;
18019;SDS011;9135;48.362;10.878;2023-01-09T00:33:35;3.27;;;2.87;;
18019;SDS011;9135;48.362;10.878;2023-01-09T00:36:01;1.97;;;1.93;;
18019;SDS011;9135;48.362;10.878;2023-01-09T00:38:27;4.03;;;3.83;;
18019;SDS011;9135;48.362;10.878;2023-01-09T00:40:54;3.47;;;3.17;;
18019;SDS011;9135;48.362;10.878;2023-01-09T00:43:20;3.13;;;2.90;;
18019;SDS011;9135;48.362;10.878;2023-01-09T00:45:47;3.33;;;2.90;;
18019;SDS011;9135;48.362;10.878;2023-01-09T00:48:14;4.27;;;3.83;;
18019;SDS011;9135;48.362;10.878;2023-01-09T00:50:41;7.93;;;4.20;;
18019;SDS011;9135;48.362;10.878;2023-01-09T00:53:09;2.87;;;2.43;;
18019;SDS011;9135;48.362;10.878;2023-01-09T00:55:36;2.87;;;2.67;;
18019;SDS011;9135;48.362;10.878;2023-01-09T00:58:03;3.20;;;2.43;;
18019;SDS011;9135;48.362;10.878;2023-01-09T01:00:29;4.77;;;2.77;;
18019;SDS011;9135;48.362;10.878;2023-01-09T01:02:55;4.07;;;3.67;;
18019;SDS011;9135;48.362;10.878;2023-01-09T01:05:21;3.17;;;3.03;;
18019;SDS011;9135;48.362;10.878;2023-01-09T01:08:11;2.87;;;2.67;;
18019;SDS011;9135;48.362;10.878;2023-01-09T01:10:38;2.33;;;2.23;;
18019;SDS011;9135;48.362;10.878;2023-01-09T01:16:10;2.03;;;1.90;;
18019;SDS011;9135;48.362;10.878;2023-01-09T01:18:37;3.03;;;2.93;;
18019;SDS011;9135;48.362;10.878;2023-01-09T01:21:07;2.47;;;2.27;;
18019;SDS011;9135;48.362;10.878;2023-01-09T01:23:33;4.30;;;3.43;;
18019;SDS011;9135;48.362;10.878;2023-01-09T01:26:06;3.00;;;2.47;;
18019;SDS011;9135;48.362;10.878;2023-01-09T01:28:33;3.00;;;2.77;;
18019;SDS011;9135;48.362;10.878;2023-01-09T01:30:59;2.90;;;2.70;;
18019;SDS011;9135;48.362;10.878;2023-01-09T01:33:26;2.93;;;2.73;;
18019;SDS011;9135;48.362;10.878;2023-01-09T01:35:59;3.43;;;3.23;;
18019;SDS011;9135;48.362;10.878;2023-01-09T01:38:25;2.43;;;2.33;;
18019;SDS011;9135;48.362;10.878;2023-01-09T01:40:52;2.83;;;2.70;;
18019;SDS011;9135;48.362;10.878;2023-01-09T01:43:18;2.20;;;2.10;;
18019;SDS011;9135;48.362;10.878;2023-01-09T01:45:44;2.57;;;2.37;;
18019;SDS011;9135;48.362;10.878;2023-01-09T01:48:11;3.27;;;3.03;;
18019;SDS011;9135;48.362;10.878;2023-01-09T01:58:16;2.17;;;2.07;;
18019;SDS011;9135;48.362;10.878;2023-01-09T02:00:43;4.57;;;2.30;;
18019;SDS011;9135;48.362;10.878;2023-01-09T02:03:10;8.07;;;2.53;;
18019;SDS011;9135;48.362;10.878;2023-01-09T02:05:37;1.67;;;1.67;;
18019;SDS011;9135;48.362;10.878;2023-01-09T02:08:04;1.63;;;1.53;;
18019;SDS011;9135;48.362;10.878;2023-01-09T02:10:30;1.87;;;1.83;;
18019;SDS011;9135;48.362;10.878;2023-01-09T02:12:57;2.63;;;1.70;;
18019;SDS011;9135;48.362;10.878;2023-01-09T02:15:23;3.83;;;3.53;;
18019;SDS011;9135;48.362;10.878;2023-01-09T02:35:46;3.53;;;2.40;;
18019;SDS011;9135;48.362;10.878;2023-01-09T02:41:27;2.40;;;2.20;;
18019;SDS011;9135;48.362;10.878;2023-01-09T02:43:33;1.60;;;1.60;;
18019;SDS011;9135;48.362;10.878;2023-01-09T02:45:59;2.43;;;2.33;;
18019;SDS011;9135;48.362;10.878;2023-01-09T02:48:25;2.33;;;2.23;;
18019;SDS011;9135;48.362;10.878;2023-01-09T02:58:23;1.47;;;1.43;;
18019;SDS011;9135;48.362;10.878;2023-01-09T03:05:53;1.73;;;1.63;;
18019;SDS011;9135;48.362;10.878;2023-01-09T03:08:24;4.53;;;2.77;;
18019;SDS011;9135;48.362;10.878;2023-01-09T03:13:18;2.70;;;2.60;;
18019;SDS011;9135;48.362;10.878;2023-01-09T03:15:46;2.23;;;2.00;;
18019;SDS011;9135;48.362;10.878;2023-01-09T03:18:14;1.10;;;1.10;;
18019;SDS011;9135;48.362;10.878;2023-01-09T03:20:42;1.63;;;1.60;;
18019;SDS011;9135;48.362;10.878;2023-01-09T03:23:08;3.23;;;3.03;;
18019;SDS011;9135;48.362;10.878;2023-01-09T03:25:34;3.03;;;2.73;;
18019;SDS011;9135;48.362;10.878;2023-01-09T03:28:01;1.80;;;1.80;;
18019;SDS011;9135;48.362;10.878;2023-01-09T03:30:28;3.23;;;1.97;;
18019;SDS011;9135;48.362;10.878;2023-01-09T03:32:55;2.03;;;1.90;;
18019;SDS011;9135;48.362;10.878;2023-01-09T03:35:21;2.70;;;2.60;;
18019;SDS011;9135;48.362;10.878;2023-01-09T03:37:47;2.00;;;1.87;;
18019;SDS011;9135;48.362;10.878;2023-01-09T03:40:13;1.77;;;1.70;;
18019;SDS011;9135;48.362;10.878;2023-01-09T03:42:39;2.87;;;2.77;;
18019;SDS011;9135;48.362;10.878;2023-01-09T03:45:05;2.73;;;2.63;;
18019;SDS011;9135;48.362;10.878;2023-01-09T03:47:31;3.27;;;2.20;;
18019;SDS011;9135;48.362;10.878;2023-01-09T03:49:58;1.73;;;1.63;;
18019;SDS011;9135;48.362;10.878;2023-01-09T03:52:24;1.93;;;1.83;;
18019;SDS011;9135;48.362;10.878;2023-01-09T03:54:50;1.87;;;1.70;;
18019;SDS011;9135;48.362;10.878;2023-01-09T03:57:16;1.83;;;1.77;;
18019;SDS011;9135;48.362;10.878;2023-01-09T03:59:42;1.33;;;1.33;;
18019;SDS011;9135;48.362;10.878;2023-01-09T04:02:08;1.50;;;1.50;;
18019;SDS011;9135;48.362;10.878;2023-01-09T04:04:34;1.50;;;1.40;;
18019;SDS011;9135;48.362;10.878;2023-01-09T04:07:00;1.50;;;1.50;;
18019;SDS011;9135;48.362;10.878;2023-01-09T04:09:26;1.03;;;1.03;;
18019;SDS011;9135;48.362;10.878;2023-01-09T04:11:52;1.30;;;1.20;;
18019;SDS011;9135;48.362;10.878;2023-01-09T04:14:18;0.70;;;0.70;;
18019;SDS011;9135;48.362;10.878;2023-01-09T04:16:44;0.90;;;0.90;;
18019;SDS011;9135;48.362;10.878;2023-01-09T04:19:10;1.23;;;1.23;;
18019;SDS011;9135;48.362;10.878;2023-01-09T04:21:36;0.97;;;0.97;;
18019;SDS011;9135;48.362;10.878;2023-01-09T04:24:02;0.70;;;0.70;;
18019;SDS011;9135;48.362;10.878;2023-01-09T04:26:28;1.27;;;1.27;;
18019;SDS011;9135;48.362;10.878;2023-01-09T04:28:54;0.90;;;0.90;;
18019;SDS011;9135;48.362;10.878;2023-01-09T04:31:20;0.90;;;0.90;;
18019;SDS011;9135;48.362;10.878;2023-01-09T04:33:46;1.17;;;1.17;;
18019;SDS011;9135;48.362;10.878;2023-01-09T04:36:12;0.90;;;0.90;;
18019;SDS011;9135;48.362;10.878;2023-01-09T04:38:38;0.80;;;0.80;;
18019;SDS011;9135;48.362;10.878;2023-01-09T04:41:04;1.17;;;1.17;;
18019;SDS011;9135;48.362;10.878;2023-01-09T04:43:31;0.80;;;0.80;;
18019;SDS011;9135;48.362;10.878;2023-01-09T04:45:57;0.90;;;0.90;;
18019;SDS011;9135;48.362;10.878;2023-01-09T04:48:23;1.63;;;1.43;;
18019;SDS011;9135;48.362;10.878;2023-01-09T04:50:49;0.80;;;0.80;;
18019;SDS011;9135;48.362;10.878;2023-01-09T04:53:15;0.90;;;0.90;;
18019;SDS011;9135;48.362;10.878;2023-01-09T04:55:41;0.90;;;0.90;;
18019;SDS011;9135;48.362;10.878;2023-01-09T04:58:07;0.83;;;0.83;;
18019;SDS011;9135;48.362;10.878;2023-01-09T05:00:33;0.67;;;0.67;;
18019;SDS011;9135;48.362;10.878;2023-01-09T05:02:59;0.70;;;0.70;;
18019;SDS011;9135;48.362;10.878;2023-01-09T05:05:26;0.80;;;0.80;;
18019;SDS011;9135;48.362;10.878;2023-01-09T05:07:53;0.83;;;0.83;;
18019;SDS011;9135;48.362;10.878;2023-01-09T05:10:19;1.00;;;1.00;;
18019;SDS011;9135;48.362;10.878;2023-01-09T05:12:45;0.80;;;0.80;;
18019;SDS011;9135;48.362;10.878;2023-01-09T05:15:11;0.80;;;0.80;;
18019;SDS011;9135;48.362;10.878;2023-01-09T05:17:37;1.00;;;1.00;;
18019;SDS011;9135;48.362;10.878;2023-01-09T05:20:03;0.80;;;0.80;;
18019;SDS011;9135;48.362;10.878;2023-01-09T05:22:29;1.00;;;1.00;;
18019;SDS011;9135;48.362;10.878;2023-01-09T05:24:55;0.60;;;0.60;;
18019;SDS011;9135;48.362;10.878;2023-01-09T05:27:21;0.80;;;0.80;;
18019;SDS011;9135;48.362;10.878;2023-01-09T05:29:47;0.90;;;0.90;;
18019;SDS011;9135;48.362;10.878;2023-01-09T05:32:13;0.90;;;0.90;;
18019;SDS011;9135;48.362;10.878;2023-01-09T05:34:40;0.90;;;0.90;;
18019;SDS011;9135;48.362;10.878;2023-01-09T05:37:06;0.80;;;0.80;;
18019;SDS011;9135;48.362;10.878;2023-01-09T05:39:32;1.50;;;1.50;;
18019;SDS011;9135;48.362;10.878;2023-01-09T05:41:58;0.70;;;0.70;;
18019;SDS011;9135;48.362;10.878;2023-01-09T05:44:24;1.00;;;1.00;;
18019;SDS011;9135;48.362;10.878;2023-01-09T05:46:50;0.73;;;0.73;;
18019;SDS011;9135;48.362;10.878;2023-01-09T05:49:16;0.70;;;0.70;;
18019;SDS011;9135;48.362;10.878;2023-01-09T05:51:42;0.87;;;0.87;;
18019;SDS011;9135;48.362;10.878;2023-01-09T05:54:08;0.80;;;0.80;;
18019;SDS011;9135;48.362;10.878;2023-01-09T05:56:34;0.80;;;0.80;;
18019;SDS011;9135;48.362;10.878;2023-01-09T05:59:00;0.83;;;0.83;;
18019;SDS011;9135;48.362;10.878;2023-01-09T06:01:26;0.90;;;0.90;;
18019;SDS011;9135;48.362;10.878;2023-01-09T06:03:52;0.80;;;0.80;;
18019;SDS011;9135;48.362;10.878;2023-01-09T06:06:18;0.77;;;0.77;;
18019;SDS011;9135;48.362;10.878;2023-01-09T06:08:44;2.43;;;1.00;;
18019;SDS011;9135;48.362;10.878;2023-01-09T06:11:10;1.27;;;1.27;;
18019;SDS011;9135;48.362;10.878;2023-01-09T06:13:36;0.80;;;0.80;;
18019;SDS011;9135;48.362;10.878;2023-01-09T06:16:02;0.80;;;0.80;;
18019;SDS011;9135;48.362;10.878;2023-01-09T06:18:29;0.70;;;0.70;;
18019;SDS011;9135;48.362;10.878;2023-01-09T06:20:54;0.80;;;0.80;;
18019;SDS011;9135;48.362;10.878;2023-01-09T06:23:21;1.13;;;1.13;;
18019;SDS011;9135;48.362;10.878;2023-01-09T06:25:47;0.70;;;0.70;;
18019;SDS011;9135;48.362;10.878;2023-01-09T06:28:13;1.80;;;1.17;;
18019;SDS011;9135;48.362;10.878;2023-01-09T06:30:39;1.70;;;1.00;;
18019;SDS011;9135;48.362;10.878;2023-01-09T06:33:05;0.70;;;0.70;;
18019;SDS011;9135;48.362;10.878;2023-01-09T06:35:31;0.80;;;0.80;;
18019;SDS011;9135;48.362;10.878;2023-01-09T06:37:57;0.70;;;0.70;;
18019;SDS011;9135;48.362;10.878;2023-01-09T06:40:25;0.80;;;0.80;;
18019;SDS011;9135;48.362;10.878;2023-01-09T06:42:51;0.80;;;0.80;;
18019;SDS011;9135;48.362;10.878;2023-01-09T06:45:17;0.90;;;0.90;;
18019;SDS011;9135;48.362;10.878;2023-01-09T06:47:43;0.70;;;0.70;;
18019;SDS011;9135;48.362;10.878;2023-01-09T06:50:09;0.70;;;0.70;;
18019;SDS011;9135;48.362;10.878;2023-01-09T06:52:35;0.80;;;0.80;;
18019;SDS011;9135;48.362;10.878;2023-01-09T06:55:02;0.80;;;0.80;;
18019;SDS011;9135;48.362;10.878;2023-01-09T06:57:28;0.80;;;0.80;;
18019;SDS011;9135;48.362;10.878;2023-01-09T06:59:54;0.80;;;0.80;;
18019;SDS011;9135;48.362;10.878;2023-01-09T07:02:20;0.80;;;0.80;;
18019;SDS011;9135;48.362;10.878;2023-01-09T07:04:47;0.70;;;0.70;;
18019;SDS011;9135;48.362;10.878;2023-01-09T07:07:13;0.70;;;0.70;;
18019;SDS011;9135;48.362;10.878;2023-01-09T07:09:39;0.70;;;0.70;;
18019;SDS011;9135;48.362;10.878;2023-01-09T07:12:05;0.70;;;0.70;;
18019;SDS011;9135;48.362;10.878;2023-01-09T07:14:31;0.70;;;0.70;;
18019;SDS011;9135;48.362;10.878;2023-01-09T07:16:58;0.70;;;0.70;;
18019;SDS011;9135;48.362;10.878;2023-01-09T07:19:24;0.90;;;0.90;;
18019;SDS011;9135;48.362;10.878;2023-01-09T07:21:50;0.70;;;0.70;;
18019;SDS011;9135;48.362;10.878;2023-01-09T07:24:16;0.70;;;0.70;;
18019;SDS011;9135;48.362;10.878;2023-01-09T07:26:42;0.80;;;0.80;;
18019;SDS011;9135;48.362;10.878;2023-01-09T07:29:10;0.80;;;0.80;;
18019;SDS011;9135;48.362;10.878;2023-01-09T07:31:37;0.70;;;0.70;;
18019;SDS011;9135;48.362;10.878;2023-01-09T07:34:03;0.70;;;0.70;;
18019;SDS011;9135;48.362;10.878;2023-01-09T07:36:29;0.73;;;0.73;;
18019;SDS011;9135;48.362;10.878;2023-01-09T07:38:55;0.80;;;0.80;;
18019;SDS011;9135;48.362;10.878;2023-01-09T07:41:21;0.90;;;0.90;;
18019;SDS011;9135;48.362;10.878;2023-01-09T07:43:47;1.43;;;0.90;;
18019;SDS011;9135;48.362;10.878;2023-01-09T07:46:13;1.00;;;1.00;;
18019;SDS011;9135;48.362;10.878;2023-01-09T07:48:39;0.80;;;0.80;;
18019;SDS011;9135;48.362;10.878;2023-01-09T07:51:05;0.70;;;0.70;;
18019;SDS011;9135;48.362;10.878;2023-01-09T07:53:31;0.70;;;0.70;;
18019;SDS011;9135;48.362;10.878;2023-01-09T07:55:57;0.70;;;0.70;;
18019;SDS011;9135;48.362;10.878;2023-01-09T07:58:23;3.40;;;1.80;;
18019;SDS011;9135;48.362;10.878;2023-01-09T08:00:49;0.80;;;0.80;;
18019;SDS011;9135;48.362;10.878;2023-01-09T08:03:16;1.00;;;1.00;;
18019;SDS011;9135;48.362;10.878;2023-01-09T08:05:42;0.80;;;0.80;;
18019;SDS011;9135;48.362;10.878;2023-01-09T08:08:08;0.73;;;0.73;;
18019;SDS011;9135;48.362;10.878;2023-01-09T08:10:34;0.70;;;0.70;;
18019;SDS011;9135;48.362;10.878;2023-01-09T08:13:00;0.70;;;0.70;;
18019;SDS011;9135;48.362;10.878;2023-01-09T08:15:26;0.70;;;0.70;;
18019;SDS011;9135;48.362;10.878;2023-01-09T08:17:52;0.90;;;0.90;;
18019;SDS011;9135;48.362;10.878;2023-01-09T08:20:18;0.90;;;0.90;;
18019;SDS011;9135;48.362;10.878;2023-01-09T08:22:47;0.80;;;0.80;;
18019;SDS011;9135;48.362;10.878;2023-01-09T08:25:17;0.80;;;0.80;;
18019;SDS011;9135;48.362;10.878;2023-01-09T08:27:44;1.00;;;1.00;;
18019;SDS011;9135;48.362;10.878;2023-01-09T08:30:10;0.70;;;0.70;;
18019;SDS011;9135;48.362;10.878;2023-01-09T08:32:36;0.70;;;0.70;;
18019;SDS011;9135;48.362;10.878;2023-01-09T08:35:03;0.70;;;0.70;;
18019;SDS011;9135;48.362;10.878;2023-01-09T08:37:29;0.80;;;0.80;;
18019;SDS011;9135;48.362;10.878;2023-01-09T08:39:55;0.70;;;0.70;;
18019;SDS011;9135;48.362;10.878;2023-01-09T08:42:21;0.80;;;0.80;;
18019;SDS011;9135;48.362;10.878;2023-01-09T08:45:06;0.70;;;0.70;;
18019;SDS011;9135;48.362;10.878;2023-01-09T08:47:51;0.70;;;0.70;;
18019;SDS011;9135;48.362;10.878;2023-01-09T08:50:17;0.80;;;0.80;;
18019;SDS011;9135;48.362;10.878;2023-01-09T08:52:43;0.80;;;0.80;;
18019;SDS011;9135;48.362;10.878;2023-01-09T08:55:09;0.80;;;0.80;;
18019;SDS011;9135;48.362;10.878;2023-01-09T08:57:35;0.80;;;0.80;;
18019;SDS011;9135;48.362;10.878;2023-01-09T09:00:01;0.90;;;0.90;;
18019;SDS011;9135;48.362;10.878;2023-01-09T09:02:29;0.80;;;0.80;;
18019;SDS011;9135;48.362;10.878;2023-01-09T09:04:55;0.70;;;0.70;;
18019;SDS011;9135;48.362;10.878;2023-01-09T09:07:21;0.70;;;0.70;;
18019;SDS011;9135;48.362;10.878;2023-01-09T09:09:53;0.80;;;0.80;;
18019;SDS011;9135;48.362;10.878;2023-01-09T09:12:19;1.23;;;1.23;;
18019;SDS011;9135;48.362;10.878;2023-01-09T09:14:46;0.70;;;0.70;;
18019;SDS011;9135;48.362;10.878;2023-01-09T09:17:31;1.47;;;1.33;;
18019;SDS011;9135;48.362;10.878;2023-01-09T09:19:57;0.70;;;0.70;;
18019;SDS011;9135;48.362;10.878;2023-01-09T09:22:23;0.80;;;0.80;;
18019;SDS011;9135;48.362;10.878;2023-01-09T09:24:50;0.70;;;0.70;;
18019;SDS011;9135;48.362;10.878;2023-01-09T09:27:16;0.90;;;0.90;;
18019;SDS011;9135;48.362;10.878;2023-01-09T09:29:42;0.80;;;0.80;;
18019;SDS011;9135;48.362;10.878;2023-01-09T09:32:08;0.80;;;0.80;;
18019;SDS011;9135;48.362;10.878;2023-01-09T09:34:34;0.80;;;0.80;;
18019;SDS011;9135;48.362;10.878;2023-01-09T09:37:00;0.80;;;0.80;;
18019;SDS011;9135;48.362;10.878;2023-01-09T09:39:26;0.80;;;0.80;;
18019;SDS011;9135;48.362;10.878;2023-01-09T09:44:53;0.70;;;0.70;;
18019;SDS011;9135;48.362;10.878;2023-01-09T09:47:29;0.90;;;0.90;;
18019;SDS011;9135;48.362;10.878;2023-01-09T09:52:49;3.00;;;1.13;;
18019;SDS011;9135;48.362;10.878;2023-01-09T09:55:17;0.77;;;0.77;;
18019;SDS011;9135;48.362;10.878;2023-01-09T09:57:45;0.70;;;0.70;;
18019;SDS011;9135;48.362;10.878;2023-01-09T10:00:19;0.70;;;0.70;;
18019;SDS011;9135;48.362;10.878;2023-01-09T10:03:02;1.00;;;1.00;;
18019;SDS011;9135;48.362;10.878;2023-01-09T10:05:32;0.70;;;0.70;;
18019;SDS011;9135;48.362;10.878;2023-01-09T10:08:02;0.77;;;0.77;;
18019;SDS011;9135;48.362;10.878;2023-01-09T10:10:37;0.70;;;0.70;;
18019;SDS011;9135;48.362;10.878;2023-01-09T10:13:06;1.53;;;0.83;;
18019;SDS011;9135;48.362;10.878;2023-01-09T10:16:03;1.10;;;1.10;;
18019;SDS011;9135;48.362;10.878;2023-01-09T10:18:40;0.80;;;0.80;;
18019;SDS011;9135;48.362;10.878;2023-01-09T10:21:11;0.80;;;0.80;;
18019;SDS011;9135;48.362;10.878;2023-01-09T10:38:51;1.07;;;0.87;;
18019;SDS011;9135;48.362;10.878;2023-01-09T10:41:20;0.70;;;0.70;;
18019;SDS011;9135;48.362;10.878;2023-01-09T10:46:52;0.90;;;0.90;;
18019;SDS011;9135;48.362;10.878;2023-01-09T10:49:18;1.07;;;1.07;;
18019;SDS011;9135;48.362;10.878;2023-01-09T10:54:15;0.70;;;0.70;;
18019;SDS011;9135;48.362;10.878;2023-01-09T10:56:43;0.90;;;0.90;;
18019;SDS011;9135;48.362;10.878;2023-01-09T10:59:10;0.70;;;0.70;;
18019;SDS011;9135;48.362;10.878;2023-01-09T11:01:38;0.70;;;0.70;;
18019;SDS011;9135;48.362;10.878;2023-01-09T11:04:46;0.80;;;0.80;;
18019;SDS011;9135;48.362;10.878;2023-01-09T11:06:55;2.43;;;1.53;;
18019;SDS011;9135;48.362;10.878;2023-01-09T11:09:23;0.90;;;0.90;;
18019;SDS011;9135;48.362;10.878;2023-01-09T11:11:49;0.80;;;0.80;;
18019;SDS011;9135;48.362;10.878;2023-01-09T11:14:16;0.70;;;0.70;;
18019;SDS011;9135;48.362;10.878;2023-01-09T11:16:56;0.80;;;0.80;;
18019;SDS011;9135;48.362;10.878;2023-01-09T11:19:23;0.70;;;0.70;;
18019;SDS011;9135;48.362;10.878;2023-01-09T11:21:49;1.10;;;1.10;;
18019;SDS011;9135;48.362;10.878;2023-01-09T11:26:48;1.13;;;1.13;;
18019;SDS011;9135;48.362;10.878;2023-01-09T11:29:18;0.70;;;0.70;;
18019;SDS011;9135;48.362;10.878;2023-01-09T11:34:16;0.70;;;0.70;;
18019;SDS011;9135;48.362;10.878;2023-01-09T11:36:43;0.70;;;0.70;;
18019;SDS011;9135;48.362;10.878;2023-01-09T11:39:22;0.70;;;0.70;;
18019;SDS011;9135;48.362;10.878;2023-01-09T11:41:52;2.10;;;0.90;;
18019;SDS011;9135;48.362;10.878;2023-01-09T11:44:19;0.70;;;0.70;;
18019;SDS011;9135;48.362;10.878;2023-01-09T11:46:46;0.90;;;0.90;;
18019;SDS011;9135;48.362;10.878;2023-01-09T11:49:19;1.70;;;1.23;;
18019;SDS011;9135;48.362;10.878;2023-01-09T11:51:47;5.10;;;0.73;;
18019;SDS011;9135;48.362;10.878;2023-01-09T11:54:29;1.10;;;1.10;;
18019;SDS011;9135;48.362;10.878;2023-01-09T11:56:56;2.30;;;2.10;;
18019;SDS011;9135;48.362;10.878;2023-01-09T11:59:26;0.80;;;0.80;;
18019;SDS011;9135;48.362;10.878;2023-01-09T12:10:55;0.70;;;0.70;;
18019;SDS011;9135;48.362;10.878;2023-01-09T12:15:52;2.23;;;1.63;;
18019;SDS011;9135;48.362;10.878;2023-01-09T12:18:36;0.70;;;0.70;;
18019;SDS011;9135;48.362;10.878;2023-01-09T12:24:02;0.80;;;0.80;;
18019;SDS011;9135;48.362;10.878;2023-01-09T12:26:35;0.63;;;0.63;;
18019;SDS011;9135;48.362;10.878;2023-01-09T12:29:10;0.70;;;0.70;;
18019;SDS011;9135;48.362;10.878;2023-01-09T12:36:51;0.83;;;0.83;;
18019;SDS011;9135;48.362;10.878;2023-01-09T12:42:06;0.80;;;0.80;;
18019;SDS011;9135;48.362;10.878;2023-01-09T12:52:39;0.70;;;0.70;;
18019;SDS011;9135;48.362;10.878;2023-01-09T12:55:13;0.70;;;0.70;;
18019;SDS011;9135;48.362;10.878;2023-01-09T12:57:41;0.90;;;0.90;;
18019;SDS011;9135;48.362;10.878;2023-01-09T13:10:27;0.70;;;0.70;;
18019;SDS011;9135;48.362;10.878;2023-01-09T13:12:57;0.90;;;0.90;;
18019;SDS011;9135;48.362;10.878;2023-01-09T13:15:38;1.17;;;1.17;;
18019;SDS011;9135;48.362;10.878;2023-01-09T13:18:48;1.10;;;1.10;;
18019;SDS011;9135;48.362;10.878;2023-01-09T13:20:54;0.80;;;0.80;;
18019;SDS011;9135;48.362;10.878;2023-01-09T13:26:07;0.70;;;0.70;;
18019;SDS011;9135;48.362;10.878;2023-01-09T13:28:37;1.47;;;1.37;;
18019;SDS011;9135;48.362;10.878;2023-01-09T13:33:38;0.70;;;0.70;;
18019;SDS011;9135;48.362;10.878;2023-01-09T13:36:05;1.30;;;1.00;;
18019;SDS011;9135;48.362;10.878;2023-01-09T13:38:32;0.97;;;0.90;;
18019;SDS011;9135;48.362;10.878;2023-01-09T13:41:07;0.80;;;0.80;;
18019;SDS011;9135;48.362;10.878;2023-01-09T13:44:03;0.60;;;0.60;;
18019;SDS011;9135;48.362;10.878;2023-01-09T13:46:41;0.80;;;0.80;;
18019;SDS011;9135;48.362;10.878;2023-01-09T13:51:57;0.90;;;0.90;;
18019;SDS011;9135;48.362;10.878;2023-01-09T13:59:43;0.70;;;0.70;;
18019;SDS011;9135;48.362;10.878;2023-01-09T14:07:47;1.20;;;1.20;;
18019;SDS011;9135;48.362;10.878;2023-01-09T14:10:24;0.90;;;0.90;;
18019;SDS011;9135;48.362;10.878;2023-01-09T14:12:51;0.93;;;0.93;;
18019;SDS011;9135;48.362;10.878;2023-01-09T14:15:26;0.80;;;0.80;;
18019;SDS011;9135;48.362;10.878;2023-01-09T14:18:01;1.17;;;1.17;;
18019;SDS011;9135;48.362;10.878;2023-01-09T14:20:35;0.70;;;0.70;;
18019;SDS011;9135;48.362;10.878;2023-01-09T14:23:02;0.83;;;0.83;;
18019;SDS011;9135;48.362;10.878;2023-01-09T14:25:29;0.70;;;0.70;;
18019;SDS011;9135;48.362;10.878;2023-01-09T14:32:59;0.80;;;0.80;;
18019;SDS011;9135;48.362;10.878;2023-01-09T14:35:27;0.97;;;0.97;;
18019;SDS011;9135;48.362;10.878;2023-01-09T14:38:04;0.70;;;0.70;;
18019;SDS011;9135;48.362;10.878;2023-01-09T14:40:31;0.90;;;0.90;;
18019;SDS011;9135;48.362;10.878;2023-01-09T14:43:00;1.00;;;1.00;;
18019;SDS011;9135;48.362;10.878;2023-01-09T14:45:29;0.70;;;0.70;;
18019;SDS011;9135;48.362;10.878;2023-01-09T14:47:56;0.80;;;0.80;;
18019;SDS011;9135;48.362;10.878;2023-01-09T14:50:34;0.80;;;0.80;;
18019;SDS011;9135;48.362;10.878;2023-01-09T14:58:25;1.13;;;1.10;;
18019;SDS011;9135;48.362;10.878;2023-01-09T15:03:21;0.80;;;0.80;;
18019;SDS011;9135;48.362;10.878;2023-01-09T15:05:47;0.70;;;0.70;;
18019;SDS011;9135;48.362;10.878;2023-01-09T15:08:15;1.37;;;1.27;;
18019;SDS011;9135;48.362;10.878;2023-01-09T15:10:43;1.77;;;1.20;;
18019;SDS011;9135;48.362;10.878;2023-01-09T15:13:12;0.87;;;0.87;;
18019;SDS011;9135;48.362;10.878;2023-01-09T15:15:46;1.13;;;1.13;;
18019;SDS011;9135;48.362;10.878;2023-01-09T15:18:23;0.77;;;0.77;;
18019;SDS011;9135;48.362;10.878;2023-01-09T15:20:53;0.80;;;0.80;;
18019;SDS011;9135;48.362;10.878;2023-01-09T15:23:22;0.70;;;0.70;;
18019;SDS011;9135;48.362;10.878;2023-01-09T15:25:49;0.90;;;0.90;;
18019;SDS011;9135;48.362;10.878;2023-01-09T15:28:22;0.70;;;0.70;;
18019;SDS011;9135;48.362;10.878;2023-01-09T15:31:22;0.70;;;0.70;;
18019;SDS011;9135;48.362;10.878;2023-01-09T15:33:42;0.80;;;0.80;;
18019;SDS011;9135;48.362;10.878;2023-01-09T15:36:11;0.80;;;0.80;;
18019;SDS011;9135;48.362;10.878;2023-01-09T15:38:38;0.90;;;0.90;;
18019;SDS011;9135;48.362;10.878;2023-01-09T15:41:10;1.37;;;1.37;;
18019;SDS011;9135;48.362;10.878;2023-01-09T15:43:38;1.00;;;1.00;;
18019;SDS011;9135;48.362;10.878;2023-01-09T15:46:05;0.70;;;0.70;;
18019;SDS011;9135;48.362;10.878;2023-01-09T15:48:32;0.70;;;0.70;;
18019;SDS011;9135;48.362;10.878;2023-01-09T15:51:05;0.83;;;0.83;;
18019;SDS011;9135;48.362;10.878;2023-01-09T15:53:34;1.10;;;1.10;;
18019;SDS011;9135;48.362;10.878;2023-01-09T15:56:45;0.97;;;0.97;;
18019;SDS011;9135;48.362;10.878;2023-01-09T15:58:51;0.80;;;0.80;;
18019;SDS011;9135;48.362;10.878;2023-01-09T16:01:26;0.70;;;0.70;;
18019;SDS011;9135;48.362;10.878;2023-01-09T16:03:55;0.83;;;0.83;;
18019;SDS011;9135;48.362;10.878;2023-01-09T16:06:28;0.93;;;0.93;;
18019;SDS011;9135;48.362;10.878;2023-01-09T16:08:58;0.70;;;0.70;;
18019;SDS011;9135;48.362;10.878;2023-01-09T16:11:25;0.70;;;0.70;;
18019;SDS011;9135;48.362;10.878;2023-01-09T16:13:52;0.70;;;0.70;;
18019;SDS011;9135;48.362;10.878;2023-01-09T16:16:22;0.80;;;0.80;;
18019;SDS011;9135;48.362;10.878;2023-01-09T16:18:50;1.17;;;1.17;;
18019;SDS011;9135;48.362;10.878;2023-01-09T16:21:22;0.77;;;0.77;;
18019;SDS011;9135;48.362;10.878;2023-01-09T16:23:52;1.60;;;1.00;;
18019;SDS011;9135;48.362;10.878;2023-01-09T16:26:20;0.90;;;0.90;;
18019;SDS011;9135;48.362;10.878;2023-01-09T16:28:47;0.90;;;0.90;;
18019;SDS011;9135;48.362;10.878;2023-01-09T16:31:24;0.80;;;0.80;;
18019;SDS011;9135;48.362;10.878;2023-01-09T16:33:55;0.70;;;0.70;;
18019;SDS011;9135;48.362;10.878;2023-01-09T16:36:22;0.87;;;0.87;;
18019;SDS011;9135;48.362;10.878;2023-01-09T16:38:48;0.70;;;0.70;;
18019;SDS011;9135;48.362;10.878;2023-01-09T16:41:17;0.90;;;0.90;;
18019;SDS011;9135;48.362;10.878;2023-01-09T16:44:03;0.80;;;0.80;;
18019;SDS011;9135;48.362;10.878;2023-01-09T16:46:31;0.90;;;0.90;;
18019;SDS011;9135;48.362;10.878;2023-01-09T16:48:58;0.70;;;0.70;;
18019;SDS011;9135;48.362;10.878;2023-01-09T16:51:24;0.77;;;0.77;;
18019;SDS011;9135;48.362;10.878;2023-01-09T16:53:53;0.80;;;0.80;;
18019;SDS011;9135;48.362;10.878;2023-01-09T16:56:23;0.70;;;0.70;;
18019;SDS011;9135;48.362;10.878;2023-01-09T16:58:50;0.77;;;0.77;;
18019;SDS011;9135;48.362;10.878;2023-01-09T17:01:18;0.90;;;0.90;;
18019;SDS011;9135;48.362;10.878;2023-01-09T17:03:44;0.80;;;0.80;;
18019;SDS011;9135;48.362;10.878;2023-01-09T17:06:18;0.90;;;0.90;;
18019;SDS011;9135;48.362;10.878;2023-01-09T17:08:45;0.77;;;0.77;;
18019;SDS011;9135;48.362;10.878;2023-01-09T17:11:19;0.83;;;0.83;;
18019;SDS011;9135;48.362;10.878;2023-01-09T17:13:45;0.80;;;0.80;;
18019;SDS011;9135;48.362;10.878;2023-01-09T17:16:12;1.03;;;1.03;;
18019;SDS011;9135;48.362;10.878;2023-01-09T17:18:38;0.90;;;0.90;;
18019;SDS011;9135;48.362;10.878;2023-01-09T17:21:04;0.80;;;0.80;;
18019;SDS011;9135;48.362;10.878;2023-01-09T17:23:30;1.20;;;1.10;;
18019;SDS011;9135;48.362;10.878;2023-01-09T17:25:57;1.80;;;0.80;;